Pagrindinis puslapis
METAR-TAF:

METAR-TAF

Oro uostai :

Båtsfjord, Norvegija

platuma: 70-38N, ilguma: 029-44E, Aukštis: 10 m

Dabartinis oras

Ataskaita buvo paskelbta 25 minutes, ne 07:20 UTC
Vėjas 21 kt iš Šiaurės Rytų
Temperatūra -2°C
Drėgmė 69%
Slėgis 1003 hPa
Matomumas 10 km arba daugiau
Su prošvaistėmis ne aukštis 4100 ft
Sniego pustymas pažeme

METAR: ENBS 020720Z 05021KT 9999 DRSN BKN041 M02/M07 Q1003

Laikas: 08:45 (07:45 UTC)


TAF: trūkstamas

Orai ataskaitas ir orų prognozės (METAR, TAF).

turimą stotys yra geltonos ir raudonos taškus žemėlapyje.

Perkelti pele per norėdami pamatyti stoties vardą.

Tada spustelėkite, norėdami matyti oro stebėjimo ir prognozės.

Norėdami pakeisti žemėlapį: spustelėkite ant žalios mygtukų su juodo kryžiaus žemyn,; žalią mygtuką su brūkšneliu, jei norite nutolinti; arba žalių rodyklių gretimoms žemėlapius.


METAR-TAF: